DW9937 Eastsound WA US current weather conditions

sailwx.info

Wind from 068 at 0 knots gusting 0

Air temperature 10.0° C
Dewpoint -6.8° C

Last reported at 2020-Jul-10 12:01 UTC.
Time now 2020-Jul-10 12:41 UTC

Location: N 48°38' W 122°57'.
View on Google Maps.

See reports from other nearby stations

  
Tides and Currents Weather Stations Pressure Air Temp Water Temp Dewpoint Dewpoint Depression Visibility Wind Speed Wind Dir Waves Ship Positions
date/time (UTC)wind fromknots sea level pressurealtimeterstation pressurevisibilityair tempwater tempwave heightnotes
2020-Jul-10 12:01 068 0 gusting 0 10.0
2020-Jul-10 11:51 068 1 gusting 1 10.0
2020-Jul-10 11:41 135 0 gusting 0 10.0
2020-Jul-10 11:30 090 10.0
2020-Jul-10 11:18 068 1 gusting 1 10.0
2020-Jul-10 11:06 045 10.0
2020-Jul-10 10:54 068 10.0
2020-Jul-10 10:44 068 10.0
2020-Jul-10 10:33 068 10.0
2020-Jul-10 10:22 068 0 gusting 1 10.0
2020-Jul-10 10:11 068 10.0
2020-Jul-10 10:00 055 0 gusting 0 10.0
2020-Jul-10 09:50 338 10.0
2020-Jul-10 09:40 270 10.0
2020-Jul-10 09:30 048 1 gusting 2 10.6
2020-Jul-10 09:20 135 10.6
2020-Jul-10 09:09 203 10.6
2020-Jul-10 08:59 141 0 gusting 0 10.6
2020-Jul-10 08:48 203 10.6
2020-Jul-10 08:38 090 10.6
2020-Jul-10 08:28 090 11.1
2020-Jul-10 08:17 090 0 gusting 1 11.1
2020-Jul-10 08:07 090 0 gusting 0 11.1
2020-Jul-10 07:56 068 11.1
2020-Jul-10 07:46 068 11.1
2020-Jul-10 07:34 068 0 gusting 1 11.1
2020-Jul-10 07:24 090 11.7
2020-Jul-10 07:14 090 11.7
2020-Jul-10 07:02 068 11.7
2020-Jul-10 06:52 068 0 gusting 0 11.7
2020-Jul-10 06:42 068 1 gusting 1 12.2
2020-Jul-10 06:32 068 12.2
2020-Jul-10 06:21 068 0 gusting 1 12.2
2020-Jul-10 06:11 338 12.2
2020-Jul-10 06:01 081 0 gusting 1 12.8
2020-Jul-10 05:51 068 1 gusting 1 12.8
2020-Jul-10 05:41 162 0 gusting 1 12.8
2020-Jul-10 05:31 135 13.3
2020-Jul-10 05:21 135 0 gusting 1 13.3
2020-Jul-10 05:11 127 13.9
2020-Jul-10 05:01 068 13.9
2020-Jul-10 04:50 068 2 gusting 2 14.4
2020-Jul-10 04:40 180 15.0
2020-Jul-10 04:30 293 15.0
2020-Jul-10 04:20 203 15.6
2020-Jul-10 04:08 158 0 gusting 1 16.1
2020-Jul-10 03:56 338 16.1
2020-Jul-10 03:46 316 1 gusting 2 16.7
2020-Jul-10 03:35 315 17.2
2020-Jul-10 03:24 210 17.2
2020-Jul-10 03:13 210 0 gusting 3 17.2
2020-Jul-10 03:02 220 3 gusting 4 17.8
2020-Jul-10 02:52 181 0 gusting 2 17.8
2020-Jul-10 02:41 203 2 gusting 4 17.8
2020-Jul-10 02:31 158 3 gusting 4 17.8
2020-Jul-10 02:21 141 0 gusting 4 18.3
2020-Jul-10 02:10 154 3 gusting 6 18.3
2020-Jul-10 01:59 190 1 gusting 4 18.9
2020-Jul-10 01:49 172 1 gusting 6 18.9
2020-Jul-10 01:37 175 1 gusting 6 19.4
2020-Jul-10 01:25 184 3 gusting 5 19.4
2020-Jul-10 01:15 188 2 gusting 4 19.4
2020-Jul-10 01:05 128 2 gusting 3 19.4
2020-Jul-10 00:55 130 1 gusting 6 19.4
2020-Jul-10 00:43 155 1 gusting 3 18.9
2020-Jul-10 00:05 172 3 gusting 10 19.4
2020-Jul-09 23:55 152 6 gusting 10 19.4
2020-Jul-09 23:45 144 2 gusting 7 19.4
2020-Jul-09 23:35 128 3 gusting 7 19.4
2020-Jul-09 23:25 162 1 gusting 5 19.4
2020-Jul-09 23:15 213 2 gusting 6 19.4
2020-Jul-09 23:04 236 1 gusting 6 20.0
2020-Jul-09 22:54 181 4 gusting 6 20.0
2020-Jul-09 22:44 156 2 gusting 6 20.0
2020-Jul-09 22:34 171 2 gusting 4 20.0
2020-Jul-09 22:22 184 0 gusting 3 20.0
2020-Jul-09 22:12 139 3 gusting 4 20.0
2020-Jul-09 22:02 139 5 gusting 6 20.0
2020-Jul-09 21:51 161 3 gusting 5 20.0
2020-Jul-09 21:41 149 2 gusting 4 19.4
2020-Jul-09 21:31 259 4 gusting 5 19.4
2020-Jul-09 21:21 241 2 gusting 2 18.9
2020-Jul-09 21:10 139 2 gusting 5 18.3
2020-Jul-09 21:00 148 2 gusting 5 18.3
2020-Jul-09 20:50 245 4 gusting 5 18.3
2020-Jul-09 20:39 255 3 gusting 5 17.8
2020-Jul-09 20:29 225 2 gusting 4 17.8
2020-Jul-09 20:18 234 4 gusting 5 17.8
2020-Jul-09 20:06 230 3 gusting 5 17.8
2020-Jul-09 19:56 248 2 gusting 4 17.2
2020-Jul-09 19:46 290 1 gusting 4 17.2
2020-Jul-09 19:06 231 2 gusting 5 17.8
2020-Jul-09 18:56 143 3 gusting 6 17.8
2020-Jul-09 18:46 117 2 gusting 4 17.8
2020-Jul-09 18:34 214 1 gusting 4 17.2
2020-Jul-09 18:24 161 1 gusting 4 17.2
2020-Jul-09 18:14 144 4 gusting 5 17.2
2020-Jul-09 18:04 113 1 gusting 2 17.2
2020-Jul-09 17:54 248 2 gusting 3 16.7
2020-Jul-09 17:43 127 1 gusting 2 16.1
2020-Jul-09 17:33 121 1 gusting 4 16.1
2020-Jul-09 17:22 101 1 gusting 1 16.1
2020-Jul-09 17:12 203 16.7
2020-Jul-09 17:01 203 16.7
2020-Jul-09 16:51 219 1 gusting 2 16.1
2020-Jul-09 16:39 214 0 gusting 0 16.1
2020-Jul-09 16:29 068 0 gusting 2 16.1
2020-Jul-09 16:19 125 0 gusting 2 15.6
2020-Jul-09 16:08 126 0 gusting 2 15.6
2020-Jul-09 15:57 225 15.6
2020-Jul-09 15:46 248 0 gusting 1 15.0
2020-Jul-09 15:36 270 1 gusting 1 15.0
2020-Jul-09 15:25 270 15.0
2020-Jul-09 15:14 248 0 gusting 0 14.4
2020-Jul-09 15:04 248 14.4
2020-Jul-09 14:54 248 14.4
2020-Jul-09 14:44 248 0 gusting 1 14.4
2020-Jul-09 14:34 270 0 gusting 1 14.4
2020-Jul-09 14:23 248 0 gusting 0 14.4
2020-Jul-09 14:13 248 13.9
2020-Jul-09 14:03 248 13.9
2020-Jul-09 13:53 248 13.9
2020-Jul-09 13:43 248 13.9
2020-Jul-09 13:33 248 13.9
2020-Jul-09 13:23 248 13.9
2020-Jul-09 13:11 248 0 gusting 1 14.4
2020-Jul-09 13:01 248 0 gusting 0 14.4
2020-Jul-09 12:50 248 14.4
2020-Jul-09 12:40 248 14.4
2020-Jul-09 12:30 248 14.4
2020-Jul-09 12:19 248 14.4
2020-Jul-09 12:08 248 14.4
2020-Jul-09 11:58 248 14.4
2020-Jul-09 11:47 248 14.4
2020-Jul-09 11:36 248 14.4
2020-Jul-09 11:26 248 14.4
2020-Jul-09 11:16 248 0 gusting 1 14.4
2020-Jul-09 11:04 270 0 gusting 0 14.4
2020-Jul-09 10:53 068 15.0
2020-Jul-09 10:43 068 15.0
2020-Jul-09 10:33 068 15.0
2020-Jul-09 10:23 068 15.0
2020-Jul-09 10:11 068 15.0
2020-Jul-09 09:41 068 15.0
2020-Jul-09 09:30 068 0 gusting 1 15.0
2020-Jul-09 09:20 068 15.0
2020-Jul-09 09:10 068 15.0
2020-Jul-09 08:59 068 15.0
2020-Jul-09 08:49 068 15.0
2020-Jul-09 08:39 068 15.0
2020-Jul-09 08:29 068 15.0
2020-Jul-09 08:18 293 15.0
2020-Jul-09 08:08 293 15.0
2020-Jul-09 07:58 293 0 gusting 0 15.0
2020-Jul-09 07:48 045 15.0
2020-Jul-09 07:38 045 15.0
2020-Jul-09 07:16 160 0 gusting 0 15.0
2020-Jul-09 07:06 248 15.6
2020-Jul-09 06:56 248 15.6
2020-Jul-09 06:46 248 15.6
2020-Jul-09 06:36 248 15.6
2020-Jul-09 06:23 248 15.6
2020-Jul-09 06:13 248 16.1
2020-Jul-09 06:03 248 16.1
2020-Jul-09 05:52 248 0 gusting 0 16.1
2020-Jul-09 05:42 248 0 gusting 1 16.1
2020-Jul-09 05:32 248 1 gusting 2 16.7
2020-Jul-09 05:21 270 0 gusting 0 16.7
2020-Jul-09 05:10 270 16.7
2020-Jul-09 04:59 068 17.2
2020-Jul-09 04:49 068 17.2
2020-Jul-09 04:39 068 17.2
2020-Jul-09 04:28 068 0 gusting 1 17.2
2020-Jul-09 04:18 068 17.2
2020-Jul-09 04:08 068 0 gusting 1 17.8
2020-Jul-09 03:58 270 17.8
2020-Jul-09 03:48 270 17.8
2020-Jul-09 03:35 270 0 gusting 0 18.3
2020-Jul-09 03:25 270 18.3
2020-Jul-09 03:15 270 18.9
2020-Jul-09 03:03 113 18.9
2020-Jul-09 02:53 135 0 gusting 0 18.9
2020-Jul-09 02:43 225 18.9
2020-Jul-09 02:31 068 19.4
2020-Jul-09 02:21 063 1 gusting 1 19.4
2020-Jul-09 02:10 142 0 gusting 0 20.0
2020-Jul-09 01:54 225 2 gusting 4 20.6
2020-Jul-09 01:44 232 0 gusting 6 21.1
2020-Jul-09 01:33 248 6 gusting 7 21.1
2020-Jul-09 01:23 248 4 gusting 6 21.1
2020-Jul-09 01:13 235 6 gusting 6 21.1
2020-Jul-09 01:02 236 3 gusting 3 21.1
2020-Jul-09 00:52 225 2 gusting 4 21.1
2020-Jul-09 00:42 234 2 gusting 5 21.7
2020-Jul-09 00:32 248 4 gusting 6 21.7
2020-Jul-09 00:21 240 4 gusting 6 21.7
2020-Jul-09 00:11 225 6 gusting 6 22.2
2020-Jul-09 00:00 238 4 gusting 6 22.2
2020-Jul-08 23:50 263 5 gusting 6 21.7
2020-Jul-08 23:40 267 6 gusting 6 21.7
2020-Jul-08 23:29 178 3 gusting 5 21.7
2020-Jul-08 23:19 276 5 gusting 6 21.1
2020-Jul-08 23:09 234 5 gusting 6 21.1
2020-Jul-08 22:59 204 2 gusting 5 21.1
2020-Jul-08 22:48 261 3 gusting 6 21.1
2020-Jul-08 22:38 256 4 gusting 6 21.1
2020-Jul-08 22:27 231 3 gusting 4 21.1
2020-Jul-08 22:17 243 2 gusting 6 21.1
2020-Jul-08 22:07 245 5 gusting 8 21.1
2020-Jul-08 21:56 249 4 gusting 6 20.6
2020-Jul-08 21:46 259 4 gusting 5 20.6
2020-Jul-08 21:35 255 4 gusting 8 21.1
2020-Jul-08 21:25 255 5 gusting 6 20.6
2020-Jul-08 21:15 303 3 gusting 6 20.6
2020-Jul-08 21:05 135 4 gusting 8 20.6
2020-Jul-08 20:55 135 3 gusting 4 20.6
2020-Jul-08 20:45 135 4 gusting 5 20.6
2020-Jul-08 20:35 149 4 gusting 7 20.6
2020-Jul-08 20:24 145 5 gusting 7 20.6
2020-Jul-08 20:14 248 2 gusting 6 20.6
2020-Jul-08 20:03 137 6 gusting 7 20.6
2020-Jul-08 19:53 259 4 gusting 6 20.6
2020-Jul-08 19:42 179 3 gusting 5 20.0
2020-Jul-08 19:31 143 6 gusting 9 20.0
2020-Jul-08 19:21 145 4 gusting 9 20.0
2020-Jul-08 19:10 155 1 gusting 6 19.4
2020-Jul-08 18:59 242 4 gusting 6 19.4
2020-Jul-08 18:49 203 3 gusting 6 19.4
2020-Jul-08 18:39 135 5 gusting 7 19.4
2020-Jul-08 18:27 179 6 gusting 7 19.4
2020-Jul-08 18:17 248 3 gusting 6 19.4
2020-Jul-08 18:06 206 1 gusting 5 18.9
2020-Jul-08 17:56 211 3 gusting 6 18.9
2020-Jul-08 17:46 189 3 gusting 4 18.9
2020-Jul-08 17:36 248 4 gusting 6 18.9
2020-Jul-08 17:26 166 4 gusting 6 18.9
2020-Jul-08 17:16 189 4 gusting 5 18.9
2020-Jul-08 17:04 155 5 gusting 7 18.3
2020-Jul-08 16:52 170 1 gusting 5 18.3
2020-Jul-08 16:42 151 2 gusting 4 17.8
2020-Jul-08 16:31 231 1 gusting 5 17.8
2020-Jul-08 16:21 159 4 gusting 6 17.8
2020-Jul-08 16:11 151 1 gusting 5 17.2
2020-Jul-08 16:01 146 1 gusting 2 17.2
2020-Jul-08 15:51 143 1 gusting 4 16.7
2020-Jul-08 15:41 272 1 gusting 3 16.7
2020-Jul-08 15:30 161 0 gusting 2 16.1
2020-Jul-08 15:20 128 1 gusting 4 16.1
2020-Jul-08 15:10 243 0 gusting 2 16.7
2020-Jul-08 15:00 262 2 gusting 4 16.7
2020-Jul-08 14:48 135 1 gusting 3 16.1
2020-Jul-08 14:38 248 15.6
2020-Jul-08 14:27 248 2 gusting 2 15.0
2020-Jul-08 14:17 203 14.4
2020-Jul-08 14:07 203 13.3
2020-Jul-08 13:57 203 12.2
2020-Jul-08 13:47 203 11.7
2020-Jul-08 13:37 113 11.7
2020-Jul-08 13:27 113 11.1
2020-Jul-08 13:16 113 10.6
2020-Jul-08 13:06 090 1 gusting 2 10.0
2020-Jul-08 12:55 090 10.0
2020-Jul-08 12:45 087 0 gusting 0 9.4
2020-Jul-08 12:35 113 9.4
2020-Jul-08 12:25 045 9.4
2020-Jul-08 12:14 045 9.4
2020-Jul-08 12:04 045 9.4